VTK601 SCEL-SCIP
Flight info
| Callsign | VTK601 |
|---|---|
| Flight time | N/A |
| Altitude | 30000 |
| Route | DGO6 DGO UL348 XONAT/N0450F320 UL348 KEXEM/N0446F340 UL348 ASALA ASALA2C |
| Aircraft | B739/M-SDE2E3FGHIRWXY/LB1 |
Departure
| Time | 2026-05-08 06:59 |
|---|---|
| Airport | Comodoro Arturo Merino Benítez International Airport (SCEL) |
Arrival
| Time | N/A |
|---|---|
| Airport | Mataveri International Airport (SCIP) |
| Time | Latitude | Longitude | Altitude | Speed | Heading |
|---|---|---|---|---|---|
| 2026-05-08 06:43 | -33.39598 | -70.79697 | 1563 ft | 0 kts | 178° |
| 2026-05-08 06:51 | -33.39580 | -70.79697 | 1564 ft | 4 kts | 178° |
| 2026-05-08 06:52 | -33.39554 | -70.79698 | 1564 ft | 4 kts | 178° |
| 2026-05-08 06:52 | -33.39530 | -70.79694 | 1564 ft | 4 kts | 222° |
| 2026-05-08 06:52 | -33.39521 | -70.79679 | 1563 ft | 0 kts | 269° |
| 2026-05-08 06:53 | -33.39521 | -70.79699 | 1563 ft | 7 kts | 268° |
| 2026-05-08 06:53 | -33.39524 | -70.79762 | 1564 ft | 8 kts | 267° |
| 2026-05-08 06:54 | -33.39527 | -70.79825 | 1564 ft | 7 kts | 267° |
| 2026-05-08 06:54 | -33.39529 | -70.79885 | 1564 ft | 7 kts | 267° |
| 2026-05-08 06:54 | -33.39532 | -70.79950 | 1564 ft | 9 kts | 268° |
| 2026-05-08 06:54 | -33.39517 | -70.80024 | 1565 ft | 9 kts | 306° |
| 2026-05-08 06:55 | -33.39455 | -70.80047 | 1565 ft | 12 kts | 354° |
| 2026-05-08 06:55 | -33.39334 | -70.80054 | 1565 ft | 23 kts | 357° |
| 2026-05-08 06:55 | -33.39156 | -70.80064 | 1565 ft | 28 kts | 357° |
| 2026-05-08 06:55 | -33.38943 | -70.80076 | 1566 ft | 33 kts | 357° |
| 2026-05-08 06:56 | -33.38698 | -70.80090 | 1566 ft | 37 kts | 357° |
| 2026-05-08 06:56 | -33.38423 | -70.80104 | 1565 ft | 41 kts | 357° |
| 2026-05-08 06:56 | -33.38123 | -70.80120 | 1565 ft | 45 kts | 358° |
| 2026-05-08 06:56 | -33.37816 | -70.80136 | 1565 ft | 43 kts | 357° |
| 2026-05-08 06:57 | -33.37534 | -70.80151 | 1565 ft | 39 kts | 358° |
| 2026-05-08 06:57 | -33.37280 | -70.80163 | 1566 ft | 35 kts | 358° |
| 2026-05-08 06:57 | -33.37125 | -70.80200 | 1566 ft | 16 kts | 308° |
| 2026-05-08 06:57 | -33.37109 | -70.80323 | 1573 ft | 15 kts | 250° |
| 2026-05-08 06:58 | -33.37192 | -70.80375 | 1572 ft | 14 kts | 179° |
| 2026-05-08 06:58 | -33.37374 | -70.80364 | 1573 ft | 53 kts | 178° |
| 2026-05-08 06:58 | -33.37967 | -70.80331 | 1571 ft | 113 kts | 177° |
| 2026-05-08 06:58 | -33.38924 | -70.80279 | 1573 ft | 160 kts | 177° |
| 2026-05-08 06:59 | -33.40118 | -70.80196 | 1783 ft | 180 kts | 176° |
| 2026-05-08 06:59 | -33.41403 | -70.80125 | 2244 ft | 190 kts | 177° |
| 2026-05-08 06:59 | -33.42724 | -70.80058 | 2813 ft | 194 kts | 178° |
| 2026-05-08 06:59 | -33.44068 | -70.79991 | 3472 ft | 194 kts | 178° |
| 2026-05-08 07:00 | -33.45458 | -70.79920 | 3750 ft | 209 kts | 177° |
| 2026-05-08 07:00 | -33.46973 | -70.79841 | 3918 ft | 227 kts | 177° |
| 2026-05-08 07:00 | -33.48626 | -70.79752 | 4056 ft | 248 kts | 177° |
| 2026-05-08 07:00 | -33.50413 | -70.79657 | 4343 ft | 265 kts | 177° |
| 2026-05-08 07:01 | -33.52265 | -70.79554 | 5018 ft | 267 kts | 176° |
| 2026-05-08 07:01 | -33.54123 | -70.79554 | 5693 ft | 269 kts | 191° |
| 2026-05-08 07:01 | -33.55755 | -70.80579 | 6320 ft | 270 kts | 227° |
| 2026-05-08 07:01 | -33.56607 | -70.82561 | 6930 ft | 274 kts | 262° |
| 2026-05-08 07:02 | -33.56400 | -70.84816 | 7539 ft | 275 kts | 288° |
| 2026-05-08 07:02 | -33.55869 | -70.87018 | 8181 ft | 276 kts | 280° |
| 2026-05-08 07:02 | -33.55666 | -70.89316 | 8804 ft | 278 kts | 268° |
| 2026-05-08 07:02 | -33.55752 | -70.91640 | 9195 ft | 280 kts | 261° |
| 2026-05-08 07:03 | -33.56013 | -70.93956 | 9184 ft | 279 kts | 258° |
| 2026-05-08 07:03 | -33.56340 | -70.96240 | 9197 ft | 278 kts | 257° |
| 2026-05-08 07:03 | -33.56686 | -70.98521 | 9204 ft | 278 kts | 257° |
| 2026-05-08 07:03 | -33.57027 | -71.00807 | 9435 ft | 279 kts | 257° |
| 2026-05-08 07:04 | -33.57363 | -71.03113 | 10075 ft | 281 kts | 257° |
| 2026-05-08 07:04 | -33.57701 | -71.05434 | 10589 ft | 288 kts | 256° |
| 2026-05-08 07:04 | -33.58059 | -71.07876 | 10738 ft | 307 kts | 256° |
| 2026-05-08 07:04 | -33.58439 | -71.10470 | 10891 ft | 325 kts | 257° |
| 2026-05-08 07:05 | -33.58838 | -71.13211 | 11026 ft | 342 kts | 257° |
| 2026-05-08 07:05 | -33.59256 | -71.16093 | 11157 ft | 359 kts | 257° |
| 2026-05-08 07:05 | -33.59685 | -71.19061 | 11279 ft | 374 kts | 257° |
| 2026-05-08 07:05 | -33.60132 | -71.22175 | 11590 ft | 382 kts | 257° |
| 2026-05-08 07:06 | -33.60583 | -71.25332 | 12095 ft | 384 kts | 257° |
| 2026-05-08 07:06 | -33.61034 | -71.28493 | 12694 ft | 385 kts | 256° |
| 2026-05-08 07:06 | -33.61485 | -71.31657 | 13243 ft | 386 kts | 256° |
| 2026-05-08 07:06 | -33.61940 | -71.34842 | 13763 ft | 388 kts | 256° |
| 2026-05-08 07:07 | -33.62395 | -71.38040 | 14232 ft | 390 kts | 256° |
| 2026-05-08 07:07 | -33.62853 | -71.41258 | 14704 ft | 391 kts | 255° |
| 2026-05-08 07:07 | -33.63309 | -71.44469 | 15196 ft | 391 kts | 255° |
| 2026-05-08 07:07 | -33.63765 | -71.47688 | 15658 ft | 392 kts | 255° |
| 2026-05-08 07:08 | -33.64222 | -71.50913 | 16121 ft | 392 kts | 255° |
| 2026-05-08 07:08 | -33.64681 | -71.54153 | 16576 ft | 393 kts | 254° |
| 2026-05-08 07:08 | -33.65131 | -71.57347 | 16954 ft | 394 kts | 253° |
| 2026-05-08 07:08 | -33.65592 | -71.60635 | 17370 ft | 395 kts | 253° |
| 2026-05-08 07:09 | -33.65917 | -71.63884 | 17738 ft | 401 kts | 259° |
| 2026-05-08 07:09 | -33.66021 | -71.67244 | 18121 ft | 405 kts | 261° |
| 2026-05-08 07:09 | -33.66043 | -71.70626 | 18494 ft | 406 kts | 262° |
| 2026-05-08 07:09 | -33.66046 | -71.74022 | 18796 ft | 407 kts | 261° |
| 2026-05-08 07:10 | -33.66058 | -71.77423 | 19095 ft | 408 kts | 261° |
| 2026-05-08 07:10 | -33.66084 | -71.80832 | 19401 ft | 408 kts | 261° |
| 2026-05-08 07:10 | -33.66122 | -71.84240 | 19697 ft | 409 kts | 261° |
| 2026-05-08 07:10 | -33.66169 | -71.87651 | 19989 ft | 409 kts | 261° |
| 2026-05-08 07:11 | -33.66222 | -71.91070 | 20257 ft | 410 kts | 261° |
| 2026-05-08 07:11 | -33.66278 | -71.94504 | 20466 ft | 413 kts | 260° |
| 2026-05-08 07:11 | -33.66335 | -71.97956 | 20682 ft | 415 kts | 260° |
| 2026-05-08 07:11 | -33.66391 | -72.01422 | 20951 ft | 416 kts | 260° |
| 2026-05-08 07:12 | -33.66444 | -72.04888 | 21233 ft | 416 kts | 260° |
| 2026-05-08 07:12 | -33.66497 | -72.08362 | 21473 ft | 417 kts | 261° |
| 2026-05-08 07:12 | -33.66549 | -72.11845 | 21686 ft | 418 kts | 261° |
| 2026-05-08 07:12 | -33.66600 | -72.15343 | 21887 ft | 420 kts | 261° |
| 2026-05-08 07:13 | -33.66649 | -72.18852 | 22116 ft | 421 kts | 261° |
| 2026-05-08 07:13 | -33.66699 | -72.22371 | 22367 ft | 421 kts | 261° |
| 2026-05-08 07:13 | -33.66747 | -72.25886 | 22549 ft | 422 kts | 261° |
| 2026-05-08 07:13 | -33.66796 | -72.29420 | 22659 ft | 425 kts | 261° |
| 2026-05-08 07:14 | -33.66845 | -72.32979 | 22796 ft | 427 kts | 261° |
| 2026-05-08 07:14 | -33.66891 | -72.36542 | 23004 ft | 427 kts | 261° |
| 2026-05-08 07:14 | -33.66935 | -72.40064 | 23219 ft | 428 kts | 261° |
| 2026-05-08 07:14 | -33.66978 | -72.43638 | 23418 ft | 428 kts | 261° |
| 2026-05-08 07:15 | -33.67021 | -72.47257 | 23572 ft | 429 kts | 261° |
| 2026-05-08 07:15 | -33.67063 | -72.50801 | 23724 ft | 431 kts | 261° |
| 2026-05-08 07:15 | -33.67103 | -72.54390 | 23884 ft | 431 kts | 261° |
| 2026-05-08 07:15 | -33.67144 | -72.57990 | 24014 ft | 431 kts | 261° |
| 2026-05-08 07:16 | -33.67184 | -72.61598 | 24107 ft | 433 kts | 261° |
| 2026-05-08 07:16 | -33.67224 | -72.65222 | 24151 ft | 436 kts | 261° |
| 2026-05-08 07:16 | -33.67262 | -72.68868 | 24249 ft | 437 kts | 261° |
| 2026-05-08 07:16 | -33.67297 | -72.72512 | 24384 ft | 437 kts | 261° |
| 2026-05-08 07:17 | -33.67332 | -72.76164 | 24524 ft | 437 kts | 261° |
| 2026-05-08 07:17 | -33.67367 | -72.79814 | 24650 ft | 438 kts | 261° |
| 2026-05-08 07:17 | -33.67400 | -72.83474 | 24769 ft | 439 kts | 261° |
| 2026-05-08 07:17 | -33.67427 | -72.87139 | 24885 ft | 440 kts | 261° |
| 2026-05-08 07:18 | -33.67449 | -72.90811 | 25003 ft | 440 kts | 261° |
| 2026-05-08 07:18 | -33.67471 | -72.94488 | 25116 ft | 441 kts | 261° |
| 2026-05-08 07:18 | -33.67492 | -72.98181 | 25152 ft | 443 kts | 261° |
| 2026-05-08 07:18 | -33.67512 | -73.01889 | 25193 ft | 445 kts | 262° |
| 2026-05-08 07:19 | -33.67527 | -73.05609 | 25307 ft | 446 kts | 262° |
| 2026-05-08 07:19 | -33.67538 | -73.09329 | 25442 ft | 446 kts | 262° |
| 2026-05-08 07:19 | -33.67548 | -73.13045 | 25559 ft | 446 kts | 262° |
| 2026-05-08 07:19 | -33.67557 | -73.16770 | 25687 ft | 446 kts | 262° |
| 2026-05-08 07:20 | -33.67565 | -73.20493 | 25868 ft | 445 kts | 261° |
| 2026-05-08 07:20 | -33.67572 | -73.24199 | 26061 ft | 444 kts | 261° |
| 2026-05-08 07:20 | -33.67579 | -73.27898 | 26225 ft | 443 kts | 261° |
| 2026-05-08 07:20 | -33.67585 | -73.31596 | 26332 ft | 443 kts | 262° |
| 2026-05-08 07:21 | -33.67590 | -73.35295 | 26479 ft | 443 kts | 262° |
| 2026-05-08 07:21 | -33.67595 | -73.38992 | 26673 ft | 442 kts | 262° |
| 2026-05-08 07:21 | -33.67597 | -73.42676 | 26898 ft | 441 kts | 262° |
| 2026-05-08 07:21 | -33.67599 | -73.46345 | 27097 ft | 440 kts | 262° |
| 2026-05-08 07:22 | -33.67600 | -73.50018 | 27282 ft | 440 kts | 262° |
| 2026-05-08 07:22 | -33.67600 | -73.53687 | 27504 ft | 439 kts | 262° |
| 2026-05-08 07:22 | -33.67598 | -73.57348 | 27749 ft | 438 kts | 262° |
| 2026-05-08 07:22 | -33.67595 | -73.60995 | 28003 ft | 436 kts | 261° |
| 2026-05-08 07:23 | -33.67592 | -73.64633 | 28230 ft | 435 kts | 261° |
| 2026-05-08 07:23 | -33.67587 | -73.68269 | 28411 ft | 435 kts | 262° |
| 2026-05-08 07:23 | -33.67583 | -73.71908 | 28627 ft | 435 kts | 262° |
| 2026-05-08 07:23 | -33.67575 | -73.75531 | 28890 ft | 434 kts | 262° |
| 2026-05-08 07:24 | -33.67566 | -73.79148 | 29185 ft | 433 kts | 262° |
| 2026-05-08 07:24 | -33.67556 | -73.82756 | 29467 ft | 431 kts | 262° |
| 2026-05-08 07:24 | -33.67546 | -73.86355 | 29743 ft | 431 kts | 261° |
| 2026-05-08 07:24 | -33.67535 | -73.89948 | 30026 ft | 430 kts | 261° |
| 2026-05-08 07:25 | -33.67522 | -73.93525 | 30344 ft | 428 kts | 261° |
| 2026-05-08 07:25 | -33.67509 | -73.97096 | 30571 ft | 427 kts | 262° |
| 2026-05-08 07:25 | -33.67484 | -74.04255 | 30861 ft | 430 kts | 262° |
| 2026-05-08 07:26 | -33.67470 | -74.07842 | 31113 ft | 429 kts | 262° |
| 2026-05-08 07:26 | -33.67452 | -74.11422 | 31407 ft | 427 kts | 262° |
| 2026-05-08 07:26 | -33.67433 | -74.14986 | 31667 ft | 426 kts | 262° |
| 2026-05-08 07:26 | -33.67413 | -74.18543 | 31864 ft | 427 kts | 262° |
| 2026-05-08 07:27 | -33.67392 | -74.22110 | 32067 ft | 427 kts | 262° |
| 2026-05-08 07:27 | -33.67371 | -74.25669 | 32289 ft | 426 kts | 262° |
| 2026-05-08 07:27 | -33.67350 | -74.29233 | 32260 ft | 428 kts | 262° |
| 2026-05-08 07:28 | -33.67302 | -74.36357 | 32259 ft | 426 kts | 262° |
| 2026-05-08 07:28 | -33.67250 | -74.43410 | 32277 ft | 425 kts | 262° |
| 2026-05-08 07:29 | -33.67196 | -74.50494 | 32294 ft | 424 kts | 262° |
| 2026-05-08 07:29 | -33.67138 | -74.57619 | 32291 ft | 424 kts | 262° |
| 2026-05-08 07:30 | -33.67075 | -74.64701 | 32290 ft | 424 kts | 262° |
| 2026-05-08 07:30 | -33.67007 | -74.71786 | 32291 ft | 425 kts | 262° |
| 2026-05-08 07:31 | -33.66937 | -74.78837 | 32298 ft | 426 kts | 262° |
| 2026-05-08 07:31 | -33.66861 | -74.85949 | 32294 ft | 427 kts | 262° |
| 2026-05-08 07:32 | -33.66782 | -74.93077 | 32294 ft | 427 kts | 262° |
| 2026-05-08 07:32 | -33.66688 | -75.00221 | 32294 ft | 429 kts | 264° |
| 2026-05-08 07:33 | -33.66235 | -75.07409 | 32270 ft | 433 kts | 266° |
| 2026-05-08 07:33 | -33.65665 | -75.14605 | 32288 ft | 434 kts | 267° |
| 2026-05-08 07:34 | -33.65101 | -75.21815 | 32289 ft | 434 kts | 266° |
| 2026-05-08 07:34 | -33.64548 | -75.29027 | 32302 ft | 434 kts | 266° |
| 2026-05-08 07:35 | -33.64000 | -75.36241 | 32299 ft | 434 kts | 266° |
| 2026-05-08 07:35 | -33.63453 | -75.43454 | 32261 ft | 434 kts | 266° |
| 2026-05-08 07:36 | -33.62900 | -75.50664 | 32295 ft | 434 kts | 266° |
| 2026-05-08 07:36 | -33.62437 | -75.56653 | 32307 ft | 434 kts | 267° |
| 2026-05-08 07:37 | -33.61876 | -75.63854 | 32293 ft | 433 kts | 267° |
| 2026-05-08 07:37 | -33.61311 | -75.71062 | 32304 ft | 434 kts | 267° |
| 2026-05-08 07:38 | -33.60744 | -75.78270 | 32302 ft | 434 kts | 267° |
| 2026-05-08 07:38 | -33.60170 | -75.85491 | 32298 ft | 435 kts | 267° |
| 2026-05-08 07:39 | -33.59591 | -75.92717 | 32309 ft | 436 kts | 267° |
| 2026-05-08 07:39 | -33.59006 | -75.99972 | 32311 ft | 438 kts | 268° |
| 2026-05-08 07:40 | -33.58414 | -76.07243 | 32309 ft | 439 kts | 268° |
| 2026-05-08 07:40 | -33.57816 | -76.14532 | 32274 ft | 440 kts | 268° |
| 2026-05-08 07:41 | -33.57214 | -76.21833 | 32301 ft | 440 kts | 268° |
| 2026-05-08 07:41 | -33.56605 | -76.29138 | 32321 ft | 441 kts | 268° |
| 2026-05-08 07:42 | -33.55992 | -76.36455 | 32314 ft | 442 kts | 268° |
| 2026-05-08 07:42 | -33.55373 | -76.43785 | 32311 ft | 442 kts | 268° |
| 2026-05-08 07:43 | -33.54750 | -76.51121 | 32292 ft | 442 kts | 268° |
| 2026-05-08 07:43 | -33.54124 | -76.58450 | 32307 ft | 442 kts | 268° |
| 2026-05-08 07:44 | -33.53492 | -76.65778 | 32321 ft | 442 kts | 269° |
| 2026-05-08 07:44 | -33.52855 | -76.73104 | 32308 ft | 442 kts | 269° |
| 2026-05-08 07:45 | -33.52215 | -76.80429 | 32319 ft | 442 kts | 269° |
| 2026-05-08 07:45 | -33.51571 | -76.87763 | 32293 ft | 443 kts | 269° |
| 2026-05-08 07:46 | -33.50921 | -76.95091 | 32311 ft | 443 kts | 269° |
| 2026-05-08 07:46 | -33.50273 | -77.02379 | 32325 ft | 443 kts | 269° |
| 2026-05-08 07:47 | -33.49612 | -77.09763 | 32321 ft | 444 kts | 269° |
| 2026-05-08 07:47 | -33.48947 | -77.17123 | 32335 ft | 445 kts | 270° |
| 2026-05-08 07:48 | -33.48279 | -77.24458 | 32304 ft | 446 kts | 270° |
| 2026-05-08 07:48 | -33.47602 | -77.31856 | 32325 ft | 447 kts | 270° |
| 2026-05-08 07:49 | -33.46918 | -77.39281 | 32325 ft | 449 kts | 270° |
| 2026-05-08 07:49 | -33.46222 | -77.46773 | 32323 ft | 450 kts | 270° |
| 2026-05-08 07:50 | -33.45529 | -77.54180 | 32324 ft | 450 kts | 270° |
| 2026-05-08 07:50 | -33.44826 | -77.61640 | 32317 ft | 451 kts | 270° |
| 2026-05-08 07:51 | -33.44120 | -77.69099 | 32331 ft | 451 kts | 270° |
| 2026-05-08 07:51 | -33.43408 | -77.76573 | 32332 ft | 451 kts | 270° |
| 2026-05-08 07:52 | -33.42692 | -77.84037 | 32335 ft | 452 kts | 270° |
| 2026-05-08 07:52 | -33.41972 | -77.91515 | 32330 ft | 452 kts | 271° |
| 2026-05-08 07:53 | -33.41247 | -77.98985 | 32320 ft | 452 kts | 271° |
| 2026-05-08 07:53 | -33.40516 | -78.06462 | 32335 ft | 452 kts | 271° |
| 2026-05-08 07:54 | -33.39781 | -78.13934 | 32341 ft | 452 kts | 271° |
| 2026-05-08 07:54 | -33.39041 | -78.21417 | 32339 ft | 453 kts | 271° |
| 2026-05-08 07:55 | -33.38295 | -78.28898 | 32345 ft | 453 kts | 271° |
| 2026-05-08 07:55 | -33.37549 | -78.36336 | 32347 ft | 453 kts | 271° |
| 2026-05-08 07:56 | -33.36796 | -78.43816 | 32347 ft | 453 kts | 271° |
| 2026-05-08 07:56 | -33.36036 | -78.51310 | 32349 ft | 454 kts | 271° |
| 2026-05-08 07:57 | -33.35272 | -78.58800 | 32350 ft | 454 kts | 271° |
| 2026-05-08 07:57 | -33.34502 | -78.66300 | 32346 ft | 454 kts | 271° |
| 2026-05-08 07:58 | -33.33728 | -78.73793 | 32339 ft | 454 kts | 272° |
| 2026-05-08 07:58 | -33.32949 | -78.81291 | 32349 ft | 454 kts | 272° |
| 2026-05-08 07:59 | -33.32171 | -78.88784 | 32346 ft | 454 kts | 272° |
| 2026-05-08 07:59 | -33.31382 | -78.96283 | 32344 ft | 455 kts | 272° |
| 2026-05-08 08:00 | -33.30587 | -79.03788 | 32352 ft | 455 kts | 272° |
| 2026-05-08 08:00 | -33.29787 | -79.11300 | 32347 ft | 456 kts | 272° |
| 2026-05-08 08:01 | -33.28982 | -79.18818 | 32366 ft | 456 kts | 272° |
| 2026-05-08 08:01 | -33.28173 | -79.26336 | 32353 ft | 457 kts | 272° |
| 2026-05-08 08:02 | -33.27359 | -79.33864 | 32362 ft | 457 kts | 272° |
| 2026-05-08 08:02 | -33.26538 | -79.41397 | 32365 ft | 457 kts | 273° |
| 2026-05-08 08:03 | -33.25712 | -79.48940 | 32358 ft | 458 kts | 273° |
| 2026-05-08 08:03 | -33.24882 | -79.56486 | 32355 ft | 459 kts | 273° |
| 2026-05-08 08:04 | -33.24046 | -79.64037 | 32368 ft | 459 kts | 274° |
| 2026-05-08 08:04 | -33.23204 | -79.71594 | 32369 ft | 459 kts | 274° |
| 2026-05-08 08:05 | -33.22357 | -79.79151 | 32371 ft | 460 kts | 274° |
| 2026-05-08 08:05 | -33.21506 | -79.86720 | 32372 ft | 459 kts | 274° |
| 2026-05-08 08:06 | -33.20650 | -79.94281 | 32373 ft | 459 kts | 274° |
| 2026-05-08 08:06 | -33.19808 | -80.01785 | 32371 ft | 458 kts | 272° |
| 2026-05-08 08:07 | -33.19187 | -80.09354 | 32375 ft | 457 kts | 271° |
| 2026-05-08 08:07 | -33.18657 | -80.16903 | 32370 ft | 456 kts | 271° |
| 2026-05-08 08:08 | -33.18104 | -80.24442 | 32383 ft | 456 kts | 271° |
| 2026-05-08 08:08 | -33.17524 | -80.31973 | 32380 ft | 455 kts | 271° |
| 2026-05-08 08:09 | -33.16928 | -80.39496 | 32380 ft | 455 kts | 271° |
| 2026-05-08 08:09 | -33.16326 | -80.47021 | 32383 ft | 455 kts | 271° |
| 2026-05-08 08:10 | -33.15722 | -80.54531 | 32370 ft | 455 kts | 271° |
| 2026-05-08 08:10 | -33.15113 | -80.62043 | 32383 ft | 454 kts | 271° |
| 2026-05-08 08:11 | -33.14500 | -80.69540 | 32390 ft | 454 kts | 271° |
| 2026-05-08 08:11 | -33.13885 | -80.77040 | 32390 ft | 454 kts | 271° |
| 2026-05-08 08:12 | -33.13265 | -80.84536 | 32386 ft | 454 kts | 271° |
| 2026-05-08 08:12 | -33.12642 | -80.92028 | 32382 ft | 454 kts | 271° |
| 2026-05-08 08:13 | -33.12012 | -80.99513 | 32389 ft | 453 kts | 271° |
| 2026-05-08 08:13 | -33.11379 | -81.06985 | 32393 ft | 453 kts | 271° |
| 2026-05-08 08:14 | -33.10743 | -81.14453 | 32381 ft | 453 kts | 271° |
| 2026-05-08 08:14 | -33.10102 | -81.21920 | 32397 ft | 453 kts | 271° |
| 2026-05-08 08:15 | -33.09459 | -81.29388 | 32390 ft | 453 kts | 271° |
| 2026-05-08 08:15 | -33.08810 | -81.36862 | 32401 ft | 453 kts | 271° |
| 2026-05-08 08:16 | -33.08152 | -81.44345 | 32397 ft | 454 kts | 271° |
| 2026-05-08 08:16 | -33.07491 | -81.51832 | 32403 ft | 454 kts | 271° |
| 2026-05-08 08:17 | -33.06938 | -81.58060 | 32400 ft | 454 kts | 271° |
| 2026-05-08 08:17 | -33.06269 | -81.65545 | 32402 ft | 454 kts | 271° |
| 2026-05-08 08:18 | -33.05595 | -81.73037 | 32404 ft | 454 kts | 271° |
| 2026-05-08 08:18 | -33.04807 | -81.81734 | 32408 ft | 454 kts | 271° |
| 2026-05-08 08:19 | -33.04236 | -81.87992 | 32403 ft | 453 kts | 271° |
| 2026-05-08 08:19 | -33.03549 | -81.95458 | 32404 ft | 453 kts | 271° |
| 2026-05-08 08:20 | -33.02859 | -82.02922 | 32407 ft | 453 kts | 271° |
| 2026-05-08 08:20 | -33.02168 | -82.10387 | 32406 ft | 453 kts | 271° |
| 2026-05-08 08:21 | -33.01467 | -82.17855 | 32409 ft | 454 kts | 271° |
| 2026-05-08 08:21 | -33.00762 | -82.25326 | 32410 ft | 454 kts | 272° |
| 2026-05-08 08:22 | -33.00053 | -82.32794 | 32407 ft | 454 kts | 272° |
| 2026-05-08 08:22 | -32.99345 | -82.40211 | 32402 ft | 454 kts | 272° |
| 2026-05-08 08:23 | -32.98628 | -82.47679 | 32411 ft | 453 kts | 272° |
| 2026-05-08 08:23 | -32.97907 | -82.55144 | 32418 ft | 454 kts | 272° |
| 2026-05-08 08:24 | -32.97180 | -82.62609 | 32411 ft | 454 kts | 272° |
| 2026-05-08 08:24 | -32.96451 | -82.70077 | 32413 ft | 454 kts | 272° |
| 2026-05-08 08:25 | -32.95715 | -82.77544 | 32417 ft | 454 kts | 272° |
| 2026-05-08 08:25 | -32.94973 | -82.85008 | 32405 ft | 454 kts | 272° |
| 2026-05-08 08:26 | -32.94229 | -82.92466 | 32417 ft | 454 kts | 272° |
| 2026-05-08 08:26 | -32.93481 | -82.99919 | 32415 ft | 453 kts | 272° |
| 2026-05-08 08:27 | -32.92729 | -83.07371 | 32420 ft | 454 kts | 273° |
| 2026-05-08 08:27 | -32.91972 | -83.14829 | 32417 ft | 454 kts | 273° |
| 2026-05-08 08:28 | -32.91210 | -83.22290 | 32417 ft | 454 kts | 273° |
| 2026-05-08 08:28 | -32.90444 | -83.29748 | 32422 ft | 454 kts | 273° |
| 2026-05-08 08:29 | -32.89674 | -83.37207 | 32416 ft | 454 kts | 273° |
| 2026-05-08 08:29 | -32.88895 | -83.44672 | 32421 ft | 454 kts | 273° |
| 2026-05-08 08:30 | -32.88113 | -83.52143 | 32414 ft | 455 kts | 273° |
| 2026-05-08 08:30 | -32.86934 | -83.63336 | 32420 ft | 454 kts | 273° |
| 2026-05-08 08:31 | -32.86144 | -83.70787 | 32426 ft | 454 kts | 274° |
| 2026-05-08 08:31 | -32.85346 | -83.78245 | 32424 ft | 454 kts | 274° |
| 2026-05-08 08:32 | -32.84545 | -83.85698 | 32420 ft | 455 kts | 274° |
| 2026-05-08 08:32 | -32.83737 | -83.93166 | 32421 ft | 455 kts | 274° |
| 2026-05-08 08:33 | -32.82927 | -84.00630 | 32423 ft | 455 kts | 274° |
| 2026-05-08 08:33 | -32.82112 | -84.08096 | 32429 ft | 456 kts | 274° |
| 2026-05-08 08:34 | -32.81290 | -84.15572 | 32427 ft | 456 kts | 274° |
| 2026-05-08 08:34 | -32.80465 | -84.23047 | 32430 ft | 456 kts | 274° |
| 2026-05-08 08:35 | -32.79636 | -84.30510 | 32419 ft | 455 kts | 274° |
| 2026-05-08 08:35 | -32.78802 | -84.37965 | 32442 ft | 455 kts | 274° |
| 2026-05-08 08:36 | -32.77967 | -84.45415 | 32437 ft | 455 kts | 274° |
| 2026-05-08 08:36 | -32.77132 | -84.52814 | 32440 ft | 454 kts | 274° |
| 2026-05-08 08:37 | -32.76287 | -84.60257 | 32426 ft | 454 kts | 274° |
| 2026-05-08 08:37 | -32.75437 | -84.67704 | 32424 ft | 455 kts | 275° |
| 2026-05-08 08:38 | -32.74583 | -84.75151 | 32439 ft | 455 kts | 275° |
| 2026-05-08 08:38 | -32.73722 | -84.82611 | 32439 ft | 456 kts | 275° |
| 2026-05-08 08:39 | -32.72857 | -84.90078 | 32441 ft | 457 kts | 275° |
| 2026-05-08 08:39 | -32.71985 | -84.97562 | 32428 ft | 458 kts | 275° |
| 2026-05-08 08:40 | -32.71109 | -85.05049 | 32423 ft | 458 kts | 275° |
| 2026-05-08 08:40 | -32.70236 | -85.12534 | 32444 ft | 458 kts | 275° |
| 2026-05-08 08:41 | -32.69357 | -85.20028 | 32435 ft | 459 kts | 275° |
| 2026-05-08 08:41 | -32.68473 | -85.27523 | 32434 ft | 458 kts | 275° |
| 2026-05-08 08:42 | -32.67583 | -85.35012 | 32434 ft | 458 kts | 275° |
| 2026-05-08 08:42 | -32.66695 | -85.42449 | 32441 ft | 457 kts | 275° |
| 2026-05-08 08:43 | -32.65799 | -85.49918 | 32437 ft | 457 kts | 276° |
| 2026-05-08 08:43 | -32.64903 | -85.57380 | 32435 ft | 457 kts | 276° |
| 2026-05-08 08:44 | -32.63997 | -85.64849 | 32436 ft | 457 kts | 276° |
| 2026-05-08 08:44 | -32.63088 | -85.72307 | 32436 ft | 457 kts | 276° |
| 2026-05-08 08:45 | -32.62175 | -85.79766 | 32437 ft | 457 kts | 276° |
| 2026-05-08 08:45 | -32.61257 | -85.87229 | 32435 ft | 457 kts | 276° |
| 2026-05-08 08:46 | -32.60336 | -85.94686 | 32439 ft | 457 kts | 276° |
| 2026-05-08 08:46 | -32.59408 | -86.02154 | 32439 ft | 458 kts | 276° |
| 2026-05-08 08:47 | -32.58476 | -86.09621 | 32437 ft | 458 kts | 276° |
| 2026-05-08 08:47 | -32.57539 | -86.17100 | 32435 ft | 459 kts | 276° |
| 2026-05-08 08:48 | -32.56595 | -86.24584 | 32439 ft | 459 kts | 276° |
| 2026-05-08 08:48 | -32.55646 | -86.32067 | 32432 ft | 459 kts | 277° |
| 2026-05-08 08:49 | -32.54691 | -86.39567 | 32444 ft | 460 kts | 277° |
| 2026-05-08 08:49 | -32.53732 | -86.47075 | 32441 ft | 461 kts | 277° |
| 2026-05-08 08:50 | -32.52762 | -86.54605 | 32440 ft | 462 kts | 277° |
| 2026-05-08 08:50 | -32.51790 | -86.62144 | 32435 ft | 463 kts | 277° |
| 2026-05-08 08:51 | -32.50810 | -86.69696 | 32441 ft | 464 kts | 277° |
| 2026-05-08 08:51 | -32.49823 | -86.77254 | 32437 ft | 465 kts | 277° |
| 2026-05-08 08:52 | -32.48838 | -86.84775 | 32440 ft | 465 kts | 277° |
| 2026-05-08 08:52 | -32.47842 | -86.92342 | 32439 ft | 465 kts | 277° |
| 2026-05-08 08:53 | -32.46840 | -86.99907 | 32441 ft | 465 kts | 278° |
| 2026-05-08 08:53 | -32.45834 | -87.07469 | 32438 ft | 464 kts | 278° |
| 2026-05-08 08:54 | -32.44827 | -87.15012 | 32438 ft | 464 kts | 278° |
| 2026-05-08 08:54 | -32.43817 | -87.22550 | 32446 ft | 463 kts | 278° |
| 2026-05-08 08:55 | -32.42802 | -87.30078 | 32436 ft | 463 kts | 278° |
| 2026-05-08 08:55 | -32.41784 | -87.37595 | 32440 ft | 462 kts | 278° |
| 2026-05-08 08:56 | -32.40763 | -87.45102 | 32443 ft | 462 kts | 278° |
| 2026-05-08 08:56 | -32.39738 | -87.52601 | 32433 ft | 462 kts | 278° |
| 2026-05-08 08:57 | -32.38706 | -87.60094 | 32438 ft | 461 kts | 278° |
| 2026-05-08 08:57 | -32.37675 | -87.67581 | 32431 ft | 461 kts | 279° |
| 2026-05-08 08:58 | -32.36639 | -87.75072 | 32445 ft | 461 kts | 279° |
| 2026-05-08 08:58 | -32.35597 | -87.82558 | 32436 ft | 462 kts | 279° |
| 2026-05-08 08:59 | -32.34549 | -87.90054 | 32445 ft | 462 kts | 279° |
| 2026-05-08 08:59 | -32.33674 | -87.96286 | 32439 ft | 462 kts | 279° |
| 2026-05-08 09:00 | -32.32619 | -88.03787 | 32438 ft | 463 kts | 279° |
| 2026-05-08 09:00 | -32.31555 | -88.11293 | 32449 ft | 464 kts | 280° |
| 2026-05-08 09:01 | -32.30483 | -88.18826 | 32438 ft | 465 kts | 280° |
| 2026-05-08 09:01 | -32.29405 | -88.26376 | 32449 ft | 466 kts | 280° |
| 2026-05-08 09:02 | -32.28320 | -88.33939 | 32439 ft | 467 kts | 280° |
| 2026-05-08 09:02 | -32.27229 | -88.41510 | 32442 ft | 467 kts | 280° |
| 2026-05-08 09:03 | -32.26135 | -88.49077 | 32429 ft | 468 kts | 280° |
| 2026-05-08 09:03 | -32.25035 | -88.56655 | 32442 ft | 468 kts | 281° |
| 2026-05-08 09:04 | -32.23926 | -88.64232 | 32431 ft | 468 kts | 281° |
| 2026-05-08 09:04 | -32.22816 | -88.71806 | 32438 ft | 468 kts | 281° |
| 2026-05-08 09:05 | -32.21703 | -88.79374 | 32434 ft | 468 kts | 281° |
| 2026-05-08 09:05 | -32.20591 | -88.86894 | 32435 ft | 467 kts | 281° |
| 2026-05-08 09:06 | -32.19468 | -88.94465 | 32436 ft | 467 kts | 281° |
| 2026-05-08 09:06 | -32.18342 | -89.02018 | 32435 ft | 467 kts | 281° |
| 2026-05-08 09:07 | -32.17210 | -89.09576 | 32435 ft | 468 kts | 281° |
| 2026-05-08 09:07 | -32.16072 | -89.17141 | 32430 ft | 469 kts | 281° |
| 2026-05-08 09:08 | -32.14927 | -89.24716 | 32431 ft | 469 kts | 281° |
| 2026-05-08 09:08 | -32.13778 | -89.32296 | 32426 ft | 469 kts | 281° |
| 2026-05-08 09:09 | -32.12624 | -89.39866 | 32432 ft | 469 kts | 282° |
| 2026-05-08 09:09 | -32.11466 | -89.47448 | 32424 ft | 469 kts | 282° |
| 2026-05-08 09:10 | -32.10303 | -89.55022 | 32433 ft | 469 kts | 282° |
| 2026-05-08 09:10 | -32.09134 | -89.62601 | 32426 ft | 470 kts | 281° |
| 2026-05-08 09:11 | -32.07962 | -89.70175 | 32432 ft | 470 kts | 282° |
| 2026-05-08 09:11 | -32.06784 | -89.77749 | 32421 ft | 470 kts | 282° |
| 2026-05-08 09:12 | -32.05601 | -89.85339 | 32430 ft | 471 kts | 282° |
| 2026-05-08 09:12 | -32.04410 | -89.92936 | 32437 ft | 472 kts | 282° |
| 2026-05-08 09:13 | -32.03213 | -90.00543 | 32432 ft | 472 kts | 282° |
| 2026-05-08 09:13 | -32.02018 | -90.08162 | 32430 ft | 473 kts | 282° |
| 2026-05-08 09:14 | -32.00826 | -90.15797 | 32430 ft | 474 kts | 282° |
| 2026-05-08 09:14 | -31.99626 | -90.23440 | 32429 ft | 475 kts | 282° |
| 2026-05-08 09:15 | -31.98418 | -90.31102 | 32427 ft | 476 kts | 282° |
| 2026-05-08 09:15 | -31.97205 | -90.38763 | 32431 ft | 476 kts | 282° |
| 2026-05-08 09:16 | -31.95987 | -90.46418 | 32423 ft | 476 kts | 282° |
| 2026-05-08 09:16 | -31.94765 | -90.54072 | 32429 ft | 476 kts | 282° |
| 2026-05-08 09:17 | -31.93538 | -90.61723 | 32425 ft | 476 kts | 282° |
| 2026-05-08 09:17 | -31.92305 | -90.69373 | 32424 ft | 476 kts | 282° |
| 2026-05-08 09:18 | -31.91069 | -90.77020 | 32424 ft | 475 kts | 282° |
| 2026-05-08 09:18 | -31.89835 | -90.84622 | 32423 ft | 476 kts | 283° |
| 2026-05-08 09:19 | -31.88590 | -90.92267 | 32422 ft | 476 kts | 283° |
| 2026-05-08 09:19 | -31.87338 | -90.99917 | 32421 ft | 476 kts | 283° |